sensor_id;sensor_type;location;lat;lon;timestamp;temperature;humidity
21849;DHT22;11089;49.852;19.700;2023-04-15T00:00:41;9.90;1.00
21849;DHT22;11089;49.852;19.700;2023-04-15T00:03:42;9.70;1.00
21849;DHT22;11089;49.852;19.700;2023-04-15T00:06:50;9.80;1.00
21849;DHT22;11089;49.852;19.700;2023-04-15T00:09:52;9.90;1.00
21849;DHT22;11089;49.852;19.700;2023-04-15T00:12:55;9.90;1.00
21849;DHT22;11089;49.852;19.700;2023-04-15T00:15:57;9.90;1.00
21849;DHT22;11089;49.852;19.700;2023-04-15T00:18:58;9.90;1.00
21849;DHT22;11089;49.852;19.700;2023-04-15T00:21:59;9.90;1.00
21849;DHT22;11089;49.852;19.700;2023-04-15T00:25:00;9.90;1.00
21849;DHT22;11089;49.852;19.700;2023-04-15T00:28:01;9.90;1.00
21849;DHT22;11089;49.852;19.700;2023-04-15T00:31:03;9.90;1.00
21849;DHT22;11089;49.852;19.700;2023-04-15T00:34:04;9.90;1.00
21849;DHT22;11089;49.852;19.700;2023-04-15T00:37:05;9.80;1.00
21849;DHT22;11089;49.852;19.700;2023-04-15T00:40:11;9.90;1.00
21849;DHT22;11089;49.852;19.700;2023-04-15T00:43:12;9.90;1.00
21849;DHT22;11089;49.852;19.700;2023-04-15T00:46:13;9.90;1.00
21849;DHT22;11089;49.852;19.700;2023-04-15T00:49:15;9.80;1.00
21849;DHT22;11089;49.852;19.700;2023-04-15T00:52:17;9.90;1.00
21849;DHT22;11089;49.852;19.700;2023-04-15T00:55:18;9.80;1.00
21849;DHT22;11089;49.852;19.700;2023-04-15T00:58:19;9.70;1.00
21849;DHT22;11089;49.852;19.700;2023-04-15T01:01:21;9.80;1.00
21849;DHT22;11089;49.852;19.700;2023-04-15T01:04:22;9.70;1.00
21849;DHT22;11089;49.852;19.700;2023-04-15T01:07:23;9.50;99.90
21849;DHT22;11089;49.852;19.700;2023-04-15T01:10:24;9.40;99.90
21849;DHT22;11089;49.852;19.700;2023-04-15T01:13:25;9.30;1.00
21849;DHT22;11089;49.852;19.700;2023-04-15T01:16:26;9.30;1.00
21849;DHT22;11089;49.852;19.700;2023-04-15T01:19:28;9.10;1.00
21849;DHT22;11089;49.852;19.700;2023-04-15T01:22:30;9.20;99.90
21849;DHT22;11089;49.852;19.700;2023-04-15T01:25:33;9.20;99.90
21849;DHT22;11089;49.852;19.700;2023-04-15T01:28:35;9.10;1.00
21849;DHT22;11089;49.852;19.700;2023-04-15T01:31:37;9.10;1.00
21849;DHT22;11089;49.852;19.700;2023-04-15T01:34:38;9.00;1.00
21849;DHT22;11089;49.852;19.700;2023-04-15T01:37:39;9.10;99.90
21849;DHT22;11089;49.852;19.700;2023-04-15T01:40:40;9.10;99.90
21849;DHT22;11089;49.852;19.700;2023-04-15T01:43:41;9.00;99.90
21849;DHT22;11089;49.852;19.700;2023-04-15T01:46:42;8.90;99.90
21849;DHT22;11089;49.852;19.700;2023-04-15T01:49:43;8.80;1.00
21849;DHT22;11089;49.852;19.700;2023-04-15T01:52:44;8.60;57.30
21849;DHT22;11089;49.852;19.700;2023-04-15T01:55:45;8.60;1.00
21849;DHT22;11089;49.852;19.700;2023-04-15T01:58:46;8.50;1.00
21849;DHT22;11089;49.852;19.700;2023-04-15T02:01:47;8.40;1.00
21849;DHT22;11089;49.852;19.700;2023-04-15T02:04:48;8.50;83.40
21849;DHT22;11089;49.852;19.700;2023-04-15T02:07:50;8.40;99.90
21849;DHT22;11089;49.852;19.700;2023-04-15T02:10:51;8.30;99.90
21849;DHT22;11089;49.852;19.700;2023-04-15T02:13:52;8.40;93.10
21849;DHT22;11089;49.852;19.700;2023-04-15T02:16:53;8.30;99.90
21849;DHT22;11089;49.852;19.700;2023-04-15T02:19:55;8.40;99.90
21849;DHT22;11089;49.852;19.700;2023-04-15T02:22:56;8.20;99.90
21849;DHT22;11089;49.852;19.700;2023-04-15T02:25:57;8.10;10.50
21849;DHT22;11089;49.852;19.700;2023-04-15T02:28:59;8.00;1.00
21849;DHT22;11089;49.852;19.700;2023-04-15T02:32:00;7.90;99.90
21849;DHT22;11089;49.852;19.700;2023-04-15T02:35:05;7.90;42.10
21849;DHT22;11089;49.852;19.700;2023-04-15T02:38:07;7.90;99.90
21849;DHT22;11089;49.852;19.700;2023-04-15T02:41:09;8.00;1.00
21849;DHT22;11089;49.852;19.700;2023-04-15T02:44:10;8.00;96.70
21849;DHT22;11089;49.852;19.700;2023-04-15T02:47:12;7.90;99.90
21849;DHT22;11089;49.852;19.700;2023-04-15T02:50:14;7.90;1.00
21849;DHT22;11089;49.852;19.700;2023-04-15T02:53:15;8.00;1.00
21849;DHT22;11089;49.852;19.700;2023-04-15T02:56:17;7.90;1.00
21849;DHT22;11089;49.852;19.700;2023-04-15T02:59:19;7.80;1.00
21849;DHT22;11089;49.852;19.700;2023-04-15T03:02:20;7.80;1.00
21849;DHT22;11089;49.852;19.700;2023-04-15T03:05:21;7.80;1.00
21849;DHT22;11089;49.852;19.700;2023-04-15T03:08:25;7.70;99.90
21849;DHT22;11089;49.852;19.700;2023-04-15T03:11:27;7.70;1.00
21849;DHT22;11089;49.852;19.700;2023-04-15T03:14:28;7.70;1.00
21849;DHT22;11089;49.852;19.700;2023-04-15T03:17:29;7.70;1.00
21849;DHT22;11089;49.852;19.700;2023-04-15T03:20:30;7.60;1.00
21849;DHT22;11089;49.852;19.700;2023-04-15T03:23:31;7.50;5.60
21849;DHT22;11089;49.852;19.700;2023-04-15T03:26:32;7.30;1.00
21849;DHT22;11089;49.852;19.700;2023-04-15T03:29:33;7.30;99.90
21849;DHT22;11089;49.852;19.700;2023-04-15T03:32:34;7.30;99.90
21849;DHT22;11089;49.852;19.700;2023-04-15T03:35:35;7.30;99.90
21849;DHT22;11089;49.852;19.700;2023-04-15T03:38:36;7.30;99.90
21849;DHT22;11089;49.852;19.700;2023-04-15T03:41:37;7.30;1.00
21849;DHT22;11089;49.852;19.700;2023-04-15T03:44:38;7.20;1.00
21849;DHT22;11089;49.852;19.700;2023-04-15T03:47:38;7.20;1.00
21849;DHT22;11089;49.852;19.700;2023-04-15T03:50:39;7.30;1.00
21849;DHT22;11089;49.852;19.700;2023-04-15T03:53:40;7.20;17.90
21849;DHT22;11089;49.852;19.700;2023-04-15T03:56:41;7.20;99.90
21849;DHT22;11089;49.852;19.700;2023-04-15T03:59:42;7.20;1.00
21849;DHT22;11089;49.852;19.700;2023-04-15T04:02:43;7.00;1.00
21849;DHT22;11089;49.852;19.700;2023-04-15T04:05:45;6.90;1.00
21849;DHT22;11089;49.852;19.700;2023-04-15T04:08:46;6.90;53.70
21849;DHT22;11089;49.852;19.700;2023-04-15T04:11:47;6.90;1.00
21849;DHT22;11089;49.852;19.700;2023-04-15T04:14:48;7.00;1.00
21849;DHT22;11089;49.852;19.700;2023-04-15T04:17:49;7.00;1.00
21849;DHT22;11089;49.852;19.700;2023-04-15T04:20:50;7.00;45.70
21849;DHT22;11089;49.852;19.700;2023-04-15T04:23:51;6.90;48.10
21849;DHT22;11089;49.852;19.700;2023-04-15T04:26:52;6.90;99.90
21849;DHT22;11089;49.852;19.700;2023-04-15T04:29:53;6.90;1.00
21849;DHT22;11089;49.852;19.700;2023-04-15T04:32:54;6.90;1.00
21849;DHT22;11089;49.852;19.700;2023-04-15T04:35:55;6.90;99.90
21849;DHT22;11089;49.852;19.700;2023-04-15T04:38:56;6.90;1.00
21849;DHT22;11089;49.852;19.700;2023-04-15T04:41:57;6.80;64.10
21849;DHT22;11089;49.852;19.700;2023-04-15T04:44:58;6.80;99.90
21849;DHT22;11089;49.852;19.700;2023-04-15T04:47:58;6.70;1.00
21849;DHT22;11089;49.852;19.700;2023-04-15T04:51:00;6.60;1.00
21849;DHT22;11089;49.852;19.700;2023-04-15T04:54:01;6.80;1.00
21849;DHT22;11089;49.852;19.700;2023-04-15T04:57:02;7.00;99.90
21849;DHT22;11089;49.852;19.700;2023-04-15T05:00:03;6.90;1.00
21849;DHT22;11089;49.852;19.700;2023-04-15T05:03:04;6.90;1.00
21849;DHT22;11089;49.852;19.700;2023-04-15T05:06:05;7.00;99.90
21849;DHT22;11089;49.852;19.700;2023-04-15T05:09:08;7.00;1.00
21849;DHT22;11089;49.852;19.700;2023-04-15T05:12:09;7.10;1.00
21849;DHT22;11089;49.852;19.700;2023-04-15T05:15:14;7.10;1.00
21849;DHT22;11089;49.852;19.700;2023-04-15T05:18:15;7.00;99.90
21849;DHT22;11089;49.852;19.700;2023-04-15T05:21:16;7.00;1.00
21849;DHT22;11089;49.852;19.700;2023-04-15T05:24:17;7.00;1.00
21849;DHT22;11089;49.852;19.700;2023-04-15T05:27:18;7.10;1.00
21849;DHT22;11089;49.852;19.700;2023-04-15T05:30:19;7.20;1.00
21849;DHT22;11089;49.852;19.700;2023-04-15T05:33:20;7.20;1.00
21849;DHT22;11089;49.852;19.700;2023-04-15T05:36:21;7.20;1.00
21849;DHT22;11089;49.852;19.700;2023-04-15T05:39:22;7.20;1.00
21849;DHT22;11089;49.852;19.700;2023-04-15T05:42:23;7.20;1.00
21849;DHT22;11089;49.852;19.700;2023-04-15T05:45:23;7.30;99.90
21849;DHT22;11089;49.852;19.700;2023-04-15T05:48:24;7.40;1.00
21849;DHT22;11089;49.852;19.700;2023-04-15T05:51:26;7.50;99.90
21849;DHT22;11089;49.852;19.700;2023-04-15T05:54:26;7.60;1.00
21849;DHT22;11089;49.852;19.700;2023-04-15T05:57:27;7.70;1.00
21849;DHT22;11089;49.852;19.700;2023-04-15T06:00:28;7.80;99.90
21849;DHT22;11089;49.852;19.700;2023-04-15T06:03:30;7.70;1.00
21849;DHT22;11089;49.852;19.700;2023-04-15T06:06:31;7.80;1.00
21849;DHT22;11089;49.852;19.700;2023-04-15T06:09:33;7.90;99.90
21849;DHT22;11089;49.852;19.700;2023-04-15T06:12:34;8.00;1.00
21849;DHT22;11089;49.852;19.700;2023-04-15T06:15:35;8.10;1.00
21849;DHT22;11089;49.852;19.700;2023-04-15T06:18:36;8.30;1.00
21849;DHT22;11089;49.852;19.700;2023-04-15T06:21:37;8.50;1.00
21849;DHT22;11089;49.852;19.700;2023-04-15T06:24:38;8.70;99.90
21849;DHT22;11089;49.852;19.700;2023-04-15T06:27:39;8.70;99.90
21849;DHT22;11089;49.852;19.700;2023-04-15T06:30:41;8.80;1.00
21849;DHT22;11089;49.852;19.700;2023-04-15T06:33:42;9.00;99.90
21849;DHT22;11089;49.852;19.700;2023-04-15T06:36:42;9.10;13.50
21849;DHT22;11089;49.852;19.700;2023-04-15T06:39:43;9.20;1.00
21849;DHT22;11089;49.852;19.700;2023-04-15T06:42:44;9.50;99.90
21849;DHT22;11089;49.852;19.700;2023-04-15T06:45:45;9.40;1.00
21849;DHT22;11089;49.852;19.700;2023-04-15T06:48:46;9.50;99.90
21849;DHT22;11089;49.852;19.700;2023-04-15T06:51:47;9.70;99.90
21849;DHT22;11089;49.852;19.700;2023-04-15T06:54:48;9.90;99.90
21849;DHT22;11089;49.852;19.700;2023-04-15T06:57:49;10.10;99.90
21849;DHT22;11089;49.852;19.700;2023-04-15T07:00:51;10.20;16.40
21849;DHT22;11089;49.852;19.700;2023-04-15T07:03:52;10.40;99.90
21849;DHT22;11089;49.852;19.700;2023-04-15T07:06:53;10.40;99.90
21849;DHT22;11089;49.852;19.700;2023-04-15T07:09:55;10.60;99.90
21849;DHT22;11089;49.852;19.700;2023-04-15T07:12:56;10.60;99.90
21849;DHT22;11089;49.852;19.700;2023-04-15T07:15:57;11.00;43.60
21849;DHT22;11089;49.852;19.700;2023-04-15T07:18:58;11.20;22.10
21849;DHT22;11089;49.852;19.700;2023-04-15T07:22:00;11.40;1.00
21849;DHT22;11089;49.852;19.700;2023-04-15T07:25:01;11.60;42.30
21849;DHT22;11089;49.852;19.700;2023-04-15T07:28:02;11.60;21.80
21849;DHT22;11089;49.852;19.700;2023-04-15T07:31:03;11.80;29.30
21849;DHT22;11089;49.852;19.700;2023-04-15T07:34:06;11.80;25.60
21849;DHT22;11089;49.852;19.700;2023-04-15T07:37:07;11.80;8.00
21849;DHT22;11089;49.852;19.700;2023-04-15T07:40:08;11.80;1.00
21849;DHT22;11089;49.852;19.700;2023-04-15T07:43:09;12.00;1.00
21849;DHT22;11089;49.852;19.700;2023-04-15T07:46:11;12.50;1.00
21849;DHT22;11089;49.852;19.700;2023-04-15T07:49:11;12.70;1.00
21849;DHT22;11089;49.852;19.700;2023-04-15T07:52:13;12.70;1.00
21849;DHT22;11089;49.852;19.700;2023-04-15T07:55:14;12.70;1.00
21849;DHT22;11089;49.852;19.700;2023-04-15T07:58:17;12.80;1.00
21849;DHT22;11089;49.852;19.700;2023-04-15T08:01:18;12.90;1.00
21849;DHT22;11089;49.852;19.700;2023-04-15T08:04:19;12.90;1.00
21849;DHT22;11089;49.852;19.700;2023-04-15T08:07:20;13.10;1.00
21849;DHT22;11089;49.852;19.700;2023-04-15T08:10:21;13.40;1.00
21849;DHT22;11089;49.852;19.700;2023-04-15T08:13:22;13.50;1.00
21849;DHT22;11089;49.852;19.700;2023-04-15T08:16:24;13.80;1.00
21849;DHT22;11089;49.852;19.700;2023-04-15T08:19:26;14.10;1.00
21849;DHT22;11089;49.852;19.700;2023-04-15T08:22:27;14.30;1.00
21849;DHT22;11089;49.852;19.700;2023-04-15T08:25:28;14.50;1.00
21849;DHT22;11089;49.852;19.700;2023-04-15T08:28:29;14.80;1.00
21849;DHT22;11089;49.852;19.700;2023-04-15T08:31:31;15.20;1.00
21849;DHT22;11089;49.852;19.700;2023-04-15T08:34:32;15.20;1.00
21849;DHT22;11089;49.852;19.700;2023-04-15T08:37:34;15.70;1.00
21849;DHT22;11089;49.852;19.700;2023-04-15T08:40:41;16.10;1.00
21849;DHT22;11089;49.852;19.700;2023-04-15T08:44:11;16.20;1.00
21849;DHT22;11089;49.852;19.700;2023-04-15T08:47:13;16.40;1.00
21849;DHT22;11089;49.852;19.700;2023-04-15T08:50:16;16.70;1.00
21849;DHT22;11089;49.852;19.700;2023-04-15T08:53:17;16.90;1.00
21849;DHT22;11089;49.852;19.700;2023-04-15T08:56:19;17.10;1.00
21849;DHT22;11089;49.852;19.700;2023-04-15T08:59:24;17.00;1.00
21849;DHT22;11089;49.852;19.700;2023-04-15T09:02:25;17.40;1.00
21849;DHT22;11089;49.852;19.700;2023-04-15T09:05:27;17.80;1.00
21849;DHT22;11089;49.852;19.700;2023-04-15T09:08:31;18.20;1.00
21849;DHT22;11089;49.852;19.700;2023-04-15T09:11:32;17.70;1.00
21849;DHT22;11089;49.852;19.700;2023-04-15T09:14:34;17.70;1.00
21849;DHT22;11089;49.852;19.700;2023-04-15T09:17:41;17.00;1.00
21849;DHT22;11089;49.852;19.700;2023-04-15T09:20:42;16.90;1.00
21849;DHT22;11089;49.852;19.700;2023-04-15T09:23:57;16.80;1.00
21849;DHT22;11089;49.852;19.700;2023-04-15T09:26:59;16.60;1.00
21849;DHT22;11089;49.852;19.700;2023-04-15T09:30:00;16.40;1.00
21849;DHT22;11089;49.852;19.700;2023-04-15T09:33:02;16.30;99.90
21849;DHT22;11089;49.852;19.700;2023-04-15T09:36:07;16.30;99.90
21849;DHT22;11089;49.852;19.700;2023-04-15T09:39:08;16.30;99.90
21849;DHT22;11089;49.852;19.700;2023-04-15T09:42:09;16.20;99.90
21849;DHT22;11089;49.852;19.700;2023-04-15T09:45:11;16.00;99.90
21849;DHT22;11089;49.852;19.700;2023-04-15T09:51:33;15.80;99.90
21849;DHT22;11089;49.852;19.700;2023-04-15T09:54:36;15.40;99.90
21849;DHT22;11089;49.852;19.700;2023-04-15T09:57:38;15.20;99.90
21849;DHT22;11089;49.852;19.700;2023-04-15T10:00:41;15.00;99.90
21849;DHT22;11089;49.852;19.700;2023-04-15T10:03:42;14.90;99.90
21849;DHT22;11089;49.852;19.700;2023-04-15T10:06:44;15.00;1.00
21849;DHT22;11089;49.852;19.700;2023-04-15T10:09:47;15.40;1.00
21849;DHT22;11089;49.852;19.700;2023-04-15T10:12:49;15.80;1.00
21849;DHT22;11089;49.852;19.700;2023-04-15T10:16:13;15.70;1.00
21849;DHT22;11089;49.852;19.700;2023-04-15T10:19:17;15.60;1.00
21849;DHT22;11089;49.852;19.700;2023-04-15T10:22:20;15.30;1.00
21849;DHT22;11089;49.852;19.700;2023-04-15T10:25:22;14.80;1.00
21849;DHT22;11089;49.852;19.700;2023-04-15T10:28:25;14.60;1.00
21849;DHT22;11089;49.852;19.700;2023-04-15T10:31:26;14.50;1.00
21849;DHT22;11089;49.852;19.700;2023-04-15T10:34:28;14.90;1.00
21849;DHT22;11089;49.852;19.700;2023-04-15T10:37:34;15.40;1.00
21849;DHT22;11089;49.852;19.700;2023-04-15T10:40:38;15.80;1.00
21849;DHT22;11089;49.852;19.700;2023-04-15T10:43:44;16.20;1.00
21849;DHT22;11089;49.852;19.700;2023-04-15T10:46:45;16.60;1.00
21849;DHT22;11089;49.852;19.700;2023-04-15T10:49:48;17.30;1.00
21849;DHT22;11089;49.852;19.700;2023-04-15T10:52:50;17.90;1.00
21849;DHT22;11089;49.852;19.700;2023-04-15T10:55:52;17.70;1.00
21849;DHT22;11089;49.852;19.700;2023-04-15T10:58:53;17.40;1.00
21849;DHT22;11089;49.852;19.700;2023-04-15T11:01:56;17.20;1.00
21849;DHT22;11089;49.852;19.700;2023-04-15T11:04:59;16.90;1.00
21849;DHT22;11089;49.852;19.700;2023-04-15T11:08:01;16.70;1.00
21849;DHT22;11089;49.852;19.700;2023-04-15T11:11:02;16.70;1.00
21849;DHT22;11089;49.852;19.700;2023-04-15T11:14:03;16.50;1.00
21849;DHT22;11089;49.852;19.700;2023-04-15T11:17:04;16.80;1.00
21849;DHT22;11089;49.852;19.700;2023-04-15T11:20:05;16.80;1.00
21849;DHT22;11089;49.852;19.700;2023-04-15T11:23:07;17.00;1.00
21849;DHT22;11089;49.852;19.700;2023-04-15T11:26:09;16.90;1.00
21849;DHT22;11089;49.852;19.700;2023-04-15T11:29:17;16.70;1.00
21849;DHT22;11089;49.852;19.700;2023-04-15T11:32:17;16.50;1.00
21849;DHT22;11089;49.852;19.700;2023-04-15T11:35:19;16.30;1.00
21849;DHT22;11089;49.852;19.700;2023-04-15T11:38:20;16.30;1.00
21849;DHT22;11089;49.852;19.700;2023-04-15T11:41:24;16.10;99.90
21849;DHT22;11089;49.852;19.700;2023-04-15T11:44:25;16.20;1.00
21849;DHT22;11089;49.852;19.700;2023-04-15T11:47:26;16.10;99.90
21849;DHT22;11089;49.852;19.700;2023-04-15T11:50:27;16.00;99.90
21849;DHT22;11089;49.852;19.700;2023-04-15T11:53:38;15.90;99.90
21849;DHT22;11089;49.852;19.700;2023-04-15T11:56:40;16.30;99.90
21849;DHT22;11089;49.852;19.700;2023-04-15T11:59:44;15.90;99.90
21849;DHT22;11089;49.852;19.700;2023-04-15T12:02:45;15.80;99.90
21849;DHT22;11089;49.852;19.700;2023-04-15T12:06:04;15.80;99.90
21849;DHT22;11089;49.852;19.700;2023-04-15T12:09:09;15.50;99.90
21849;DHT22;11089;49.852;19.700;2023-04-15T12:12:11;15.60;99.90
21849;DHT22;11089;49.852;19.700;2023-04-15T12:15:12;15.70;99.90
21849;DHT22;11089;49.852;19.700;2023-04-15T12:18:17;15.70;99.90
21849;DHT22;11089;49.852;19.700;2023-04-15T12:21:22;15.60;99.90
21849;DHT22;11089;49.852;19.700;2023-04-15T12:24:23;15.70;99.90
21849;DHT22;11089;49.852;19.700;2023-04-15T12:27:25;15.80;99.90
21849;DHT22;11089;49.852;19.700;2023-04-15T12:30:27;16.00;1.00
21849;DHT22;11089;49.852;19.700;2023-04-15T12:33:34;16.20;1.00
21849;DHT22;11089;49.852;19.700;2023-04-15T12:36:35;16.10;99.90
21849;DHT22;11089;49.852;19.700;2023-04-15T12:39:44;16.00;99.90
21849;DHT22;11089;49.852;19.700;2023-04-15T12:42:45;16.00;99.90
21849;DHT22;11089;49.852;19.700;2023-04-15T12:45:47;15.80;99.90
21849;DHT22;11089;49.852;19.700;2023-04-15T12:48:48;16.00;99.90
21849;DHT22;11089;49.852;19.700;2023-04-15T12:51:51;16.20;99.90
21849;DHT22;11089;49.852;19.700;2023-04-15T12:54:52;16.20;99.90
21849;DHT22;11089;49.852;19.700;2023-04-15T12:57:53;16.20;99.90
21849;DHT22;11089;49.852;19.700;2023-04-15T13:00:54;15.90;99.90
21849;DHT22;11089;49.852;19.700;2023-04-15T13:03:56;16.10;99.90
21849;DHT22;11089;49.852;19.700;2023-04-15T13:06:57;16.20;99.90
21849;DHT22;11089;49.852;19.700;2023-04-15T13:09:58;16.10;99.90
21849;DHT22;11089;49.852;19.700;2023-04-15T13:13:00;16.10;99.90
21849;DHT22;11089;49.852;19.700;2023-04-15T13:16:01;15.80;99.90
21849;DHT22;11089;49.852;19.700;2023-04-15T13:19:03;15.80;99.90
21849;DHT22;11089;49.852;19.700;2023-04-15T13:22:04;16.00;99.90
21849;DHT22;11089;49.852;19.700;2023-04-15T13:25:05;16.30;99.90
21849;DHT22;11089;49.852;19.700;2023-04-15T13:28:07;16.60;99.90
21849;DHT22;11089;49.852;19.700;2023-04-15T13:31:08;16.70;99.90
21849;DHT22;11089;49.852;19.700;2023-04-15T13:34:08;16.30;99.90
21849;DHT22;11089;49.852;19.700;2023-04-15T13:37:10;15.90;99.90
21849;DHT22;11089;49.852;19.700;2023-04-15T13:40:11;15.80;99.90
21849;DHT22;11089;49.852;19.700;2023-04-15T13:43:12;16.00;99.90
21849;DHT22;11089;49.852;19.700;2023-04-15T13:46:12;15.70;99.90
21849;DHT22;11089;49.852;19.700;2023-04-15T13:49:14;15.80;99.90
21849;DHT22;11089;49.852;19.700;2023-04-15T13:52:15;15.40;99.90
21849;DHT22;11089;49.852;19.700;2023-04-15T13:55:16;15.80;99.90
21849;DHT22;11089;49.852;19.700;2023-04-15T13:58:17;15.90;99.90
21849;DHT22;11089;49.852;19.700;2023-04-15T14:01:18;16.00;99.90
21849;DHT22;11089;49.852;19.700;2023-04-15T14:04:18;15.90;99.90
21849;DHT22;11089;49.852;19.700;2023-04-15T14:07:19;15.80;99.90
21849;DHT22;11089;49.852;19.700;2023-04-15T14:10:20;15.90;99.90
21849;DHT22;11089;49.852;19.700;2023-04-15T14:13:21;15.80;99.90
21849;DHT22;11089;49.852;19.700;2023-04-15T14:16:22;15.70;99.90
21849;DHT22;11089;49.852;19.700;2023-04-15T14:19:23;15.80;99.90
21849;DHT22;11089;49.852;19.700;2023-04-15T14:22:24;15.70;99.90
21849;DHT22;11089;49.852;19.700;2023-04-15T14:25:27;16.00;99.90
21849;DHT22;11089;49.852;19.700;2023-04-15T14:28:28;16.10;99.90
21849;DHT22;11089;49.852;19.700;2023-04-15T14:31:29;16.30;99.90
21849;DHT22;11089;49.852;19.700;2023-04-15T14:34:30;16.40;99.90
21849;DHT22;11089;49.852;19.700;2023-04-15T14:37:31;16.50;99.90
21849;DHT22;11089;49.852;19.700;2023-04-15T14:40:32;16.00;99.90
21849;DHT22;11089;49.852;19.700;2023-04-15T14:43:34;15.90;99.90
21849;DHT22;11089;49.852;19.700;2023-04-15T14:46:35;15.70;99.90
21849;DHT22;11089;49.852;19.700;2023-04-15T14:49:36;15.70;99.90
21849;DHT22;11089;49.852;19.700;2023-04-15T14:52:37;15.60;99.90
21849;DHT22;11089;49.852;19.700;2023-04-15T14:55:40;15.60;99.90
21849;DHT22;11089;49.852;19.700;2023-04-15T14:58:41;15.30;99.90
21849;DHT22;11089;49.852;19.700;2023-04-15T15:01:42;14.80;99.90
21849;DHT22;11089;49.852;19.700;2023-04-15T15:04:43;14.30;99.90
21849;DHT22;11089;49.852;19.700;2023-04-15T15:07:44;13.30;99.90
21849;DHT22;11089;49.852;19.700;2023-04-15T15:10:45;13.10;99.90
21849;DHT22;11089;49.852;19.700;2023-04-15T15:13:46;13.10;99.90
21849;DHT22;11089;49.852;19.700;2023-04-15T15:16:47;12.80;99.90
21849;DHT22;11089;49.852;19.700;2023-04-15T15:19:48;12.80;1.00
21849;DHT22;11089;49.852;19.700;2023-04-15T15:22:49;12.50;1.00
21849;DHT22;11089;49.852;19.700;2023-04-15T15:25:50;12.10;1.00
21849;DHT22;11089;49.852;19.700;2023-04-15T15:28:51;11.80;1.00
21849;DHT22;11089;49.852;19.700;2023-04-15T15:31:52;11.80;99.90
21849;DHT22;11089;49.852;19.700;2023-04-15T15:34:53;11.60;1.00
21849;DHT22;11089;49.852;19.700;2023-04-15T15:37:54;11.80;1.00
21849;DHT22;11089;49.852;19.700;2023-04-15T15:40:55;11.60;99.90
21849;DHT22;11089;49.852;19.700;2023-04-15T15:43:56;11.40;1.00
21849;DHT22;11089;49.852;19.700;2023-04-15T15:46:57;11.40;1.00
21849;DHT22;11089;49.852;19.700;2023-04-15T15:49:59;11.40;1.00
21849;DHT22;11089;49.852;19.700;2023-04-15T15:53:00;11.30;1.00
21849;DHT22;11089;49.852;19.700;2023-04-15T15:56:01;11.50;1.00
21849;DHT22;11089;49.852;19.700;2023-04-15T15:59:04;11.10;1.00
21849;DHT22;11089;49.852;19.700;2023-04-15T16:02:05;11.20;34.10
21849;DHT22;11089;49.852;19.700;2023-04-15T16:05:07;10.90;99.90
21849;DHT22;11089;49.852;19.700;2023-04-15T16:08:08;11.10;1.00
21849;DHT22;11089;49.852;19.700;2023-04-15T16:11:09;11.00;56.00
21849;DHT22;11089;49.852;19.700;2023-04-15T16:14:10;10.90;1.00
21849;DHT22;11089;49.852;19.700;2023-04-15T16:17:11;10.50;1.00
21849;DHT22;11089;49.852;19.700;2023-04-15T16:20:12;10.10;99.90
21849;DHT22;11089;49.852;19.700;2023-04-15T16:23:15;10.00;1.00
21849;DHT22;11089;49.852;19.700;2023-04-15T16:26:16;9.70;1.00
21849;DHT22;11089;49.852;19.700;2023-04-15T16:29:17;9.40;99.90
21849;DHT22;11089;49.852;19.700;2023-04-15T16:32:19;9.40;1.00
21849;DHT22;11089;49.852;19.700;2023-04-15T16:35:20;9.60;1.00
21849;DHT22;11089;49.852;19.700;2023-04-15T16:38:21;9.80;99.90
21849;DHT22;11089;49.852;19.700;2023-04-15T16:41:22;9.70;1.00
21849;DHT22;11089;49.852;19.700;2023-04-15T16:44:23;9.30;99.90
21849;DHT22;11089;49.852;19.700;2023-04-15T16:47:24;9.10;1.00
21849;DHT22;11089;49.852;19.700;2023-04-15T16:50:25;9.00;1.00
21849;DHT22;11089;49.852;19.700;2023-04-15T16:53:26;9.00;1.00
21849;DHT22;11089;49.852;19.700;2023-04-15T16:56:27;9.00;1.00
21849;DHT22;11089;49.852;19.700;2023-04-15T16:59:28;9.10;13.40
21849;DHT22;11089;49.852;19.700;2023-04-15T17:02:29;9.20;99.90
21849;DHT22;11089;49.852;19.700;2023-04-15T17:05:30;9.30;99.90
21849;DHT22;11089;49.852;19.700;2023-04-15T17:08:31;9.20;1.00
21849;DHT22;11089;49.852;19.700;2023-04-15T17:11:32;9.10;1.00
21849;DHT22;11089;49.852;19.700;2023-04-15T17:14:34;9.10;99.90
21849;DHT22;11089;49.852;19.700;2023-04-15T17:17:35;9.20;1.00
21849;DHT22;11089;49.852;19.700;2023-04-15T17:20:37;9.10;99.90
21849;DHT22;11089;49.852;19.700;2023-04-15T17:23:38;8.80;1.00
21849;DHT22;11089;49.852;19.700;2023-04-15T17:26:39;8.70;99.90
21849;DHT22;11089;49.852;19.700;2023-04-15T17:29:40;8.70;1.00
21849;DHT22;11089;49.852;19.700;2023-04-15T17:32:41;8.70;99.90
21849;DHT22;11089;49.852;19.700;2023-04-15T17:35:42;8.60;99.90
21849;DHT22;11089;49.852;19.700;2023-04-15T17:38:43;8.60;99.90
21849;DHT22;11089;49.852;19.700;2023-04-15T17:41:45;8.70;99.90
21849;DHT22;11089;49.852;19.700;2023-04-15T17:44:46;8.50;94.00
21849;DHT22;11089;49.852;19.700;2023-04-15T17:47:47;8.40;99.90
21849;DHT22;11089;49.852;19.700;2023-04-15T17:50:48;8.30;1.00
21849;DHT22;11089;49.852;19.700;2023-04-15T17:53:49;8.30;1.00
21849;DHT22;11089;49.852;19.700;2023-04-15T17:56:50;8.20;1.00
21849;DHT22;11089;49.852;19.700;2023-04-15T17:59:51;8.10;99.90
21849;DHT22;11089;49.852;19.700;2023-04-15T18:02:52;8.10;1.00
21849;DHT22;11089;49.852;19.700;2023-04-15T18:05:54;8.10;1.00
21849;DHT22;11089;49.852;19.700;2023-04-15T18:08:55;8.00;99.90
21849;DHT22;11089;49.852;19.700;2023-04-15T18:11:56;8.10;1.00
21849;DHT22;11089;49.852;19.700;2023-04-15T18:14:57;8.00;99.90
21849;DHT22;11089;49.852;19.700;2023-04-15T18:17:59;8.00;99.90
21849;DHT22;11089;49.852;19.700;2023-04-15T18:21:00;8.00;99.90
21849;DHT22;11089;49.852;19.700;2023-04-15T18:24:01;7.90;1.00
21849;DHT22;11089;49.852;19.700;2023-04-15T18:27:02;7.90;99.90
21849;DHT22;11089;49.852;19.700;2023-04-15T18:30:05;7.80;99.90
21849;DHT22;11089;49.852;19.700;2023-04-15T18:33:06;7.70;1.00
21849;DHT22;11089;49.852;19.700;2023-04-15T18:36:08;7.70;1.00
21849;DHT22;11089;49.852;19.700;2023-04-15T18:39:10;7.50;99.90
21849;DHT22;11089;49.852;19.700;2023-04-15T18:42:11;7.50;1.00
21849;DHT22;11089;49.852;19.700;2023-04-15T18:45:12;7.40;1.00
21849;DHT22;11089;49.852;19.700;2023-04-15T18:48:13;7.30;1.00
21849;DHT22;11089;49.852;19.700;2023-04-15T18:51:15;7.50;1.00
21849;DHT22;11089;49.852;19.700;2023-04-15T18:54:16;7.60;99.90
21849;DHT22;11089;49.852;19.700;2023-04-15T18:57:17;7.50;1.00
21849;DHT22;11089;49.852;19.700;2023-04-15T19:00:18;7.60;99.90
21849;DHT22;11089;49.852;19.700;2023-04-15T19:03:19;7.60;1.00
21849;DHT22;11089;49.852;19.700;2023-04-15T19:06:20;7.30;1.00
21849;DHT22;11089;49.852;19.700;2023-04-15T19:09:21;7.10;99.90
21849;DHT22;11089;49.852;19.700;2023-04-15T19:12:22;7.10;1.00